createdAt,value
2023-02-08T00:00:10.752Z,28.80
2023-02-08T00:02:37.659Z,33.00
2023-02-08T00:05:05.540Z,38.87
2023-02-08T00:07:32.441Z,41.90
2023-02-08T00:09:59.276Z,37.10
2023-02-08T00:12:26.196Z,31.00
2023-02-08T00:14:53.045Z,36.80
2023-02-08T00:17:19.871Z,38.63
2023-02-08T00:19:46.758Z,36.60
2023-02-08T00:22:13.545Z,34.97
2023-02-08T00:24:40.527Z,47.27
2023-02-08T00:27:07.531Z,36.47
2023-02-08T00:29:34.455Z,32.93
2023-02-08T00:32:01.367Z,30.40
2023-02-08T00:34:28.225Z,29.23
2023-02-08T00:36:55.048Z,26.50
2023-02-08T00:39:21.925Z,34.93
2023-02-08T00:41:48.723Z,33.33
2023-02-08T00:44:15.546Z,28.70
2023-02-08T00:46:42.414Z,27.23
2023-02-08T00:49:09.302Z,28.63
2023-02-08T00:51:36.114Z,30.87
2023-02-08T00:54:03.094Z,30.57
2023-02-08T00:56:29.931Z,28.50
2023-02-08T00:58:56.828Z,31.07
2023-02-08T01:01:23.651Z,31.80
2023-02-08T01:03:50.476Z,28.07
2023-02-08T01:06:18.475Z,29.47
2023-02-08T01:08:45.412Z,26.00
2023-02-08T01:11:22.898Z,28.33
2023-02-08T01:13:50.158Z,28.00
2023-02-08T01:16:20.432Z,26.73
2023-02-08T01:18:49.420Z,23.83
2023-02-08T01:21:19.637Z,29.33
2023-02-08T01:23:47.472Z,27.17
2023-02-08T01:26:16.869Z,30.77
2023-02-08T01:28:44.094Z,29.67
2023-02-08T01:31:17.822Z,30.80
2023-02-08T01:33:44.838Z,27.27
2023-02-08T01:36:12.251Z,28.10
2023-02-08T01:38:39.228Z,29.67
2023-02-08T01:41:08.355Z,32.30
2023-02-08T01:44:07.352Z,29.33
2023-02-08T01:46:39.613Z,36.20
2023-02-08T01:49:34.847Z,40.37
2023-02-08T01:52:23.245Z,38.27
2023-02-08T01:55:02.469Z,39.20
2023-02-08T01:57:29.853Z,42.63
2023-02-08T02:00:08.432Z,43.50
2023-02-08T02:02:37.161Z,40.00
2023-02-08T02:05:04.152Z,36.63
2023-02-08T02:07:31.825Z,42.07
2023-02-08T02:10:09.046Z,40.27
2023-02-08T02:12:37.906Z,38.53
2023-02-08T02:15:05.581Z,40.87
2023-02-08T02:17:32.782Z,39.20
2023-02-08T02:20:37.844Z,37.90
2023-02-08T02:23:10.443Z,39.30
2023-02-08T02:25:40.276Z,39.40
2023-02-08T02:28:12.970Z,37.27
2023-02-08T02:31:01.506Z,41.93
2023-02-08T02:33:34.596Z,39.43
2023-02-08T02:36:16.938Z,39.93
2023-02-08T02:38:46.725Z,38.40
2023-02-08T02:41:41.326Z,34.83
2023-02-08T02:44:17.181Z,36.93
2023-02-08T02:46:50.472Z,32.93
2023-02-08T02:49:39.392Z,37.13
2023-02-08T02:52:18.103Z,36.07
2023-02-08T02:54:54.179Z,35.47
2023-02-08T02:57:27.025Z,33.10
2023-02-08T02:59:53.989Z,34.37
2023-02-08T03:02:22.033Z,36.27
2023-02-08T03:04:53.005Z,33.10
2023-02-08T03:08:01.198Z,53.73
2023-02-08T03:10:51.997Z,63.33
2023-02-08T03:13:37.372Z,86.50
2023-02-08T03:16:45.417Z,51.43
2023-02-08T03:19:20.375Z,124.30
2023-02-08T03:22:03.008Z,177.23
2023-02-08T03:24:40.387Z,168.80
2023-02-08T03:27:20.480Z,157.47
2023-02-08T03:29:53.008Z,196.90
2023-02-08T03:32:22.976Z,159.47
2023-02-08T03:35:07.122Z,109.50
2023-02-08T03:37:46.298Z,117.90
2023-02-08T03:40:20.861Z,95.77
2023-02-08T03:42:50.088Z,79.33
2023-02-08T03:45:28.540Z,71.80
2023-02-08T03:47:59.204Z,68.60
2023-02-08T03:50:28.969Z,61.60
2023-02-08T03:52:57.035Z,66.10
2023-02-08T03:55:28.016Z,68.63
2023-02-08T03:58:03.866Z,62.30
2023-02-08T04:00:34.204Z,60.70
2023-02-08T04:03:17.333Z,61.77
2023-02-08T04:05:44.481Z,51.37
2023-02-08T04:08:11.361Z,50.60
2023-02-08T04:10:38.545Z,47.83
2023-02-08T04:13:05.438Z,49.43
2023-02-08T04:15:32.356Z,50.33
2023-02-08T04:17:59.217Z,49.77
2023-02-08T04:20:26.072Z,50.13
2023-02-08T04:22:52.916Z,54.43
2023-02-08T04:25:19.867Z,42.90
2023-02-08T04:27:46.803Z,45.27
2023-02-08T04:30:13.881Z,55.23
2023-02-08T04:32:40.716Z,57.37
2023-02-08T04:35:07.731Z,68.17
2023-02-08T04:37:34.568Z,61.43
2023-02-08T04:40:01.381Z,53.90
2023-02-08T04:42:28.357Z,50.43
2023-02-08T04:44:55.168Z,44.60
2023-02-08T04:47:22.108Z,37.07
2023-02-08T04:49:48.904Z,34.40
2023-02-08T04:52:15.768Z,38.87
2023-02-08T04:54:42.571Z,33.60
2023-02-08T04:57:12.641Z,33.57
2023-02-08T04:59:39.631Z,37.50
2023-02-08T05:02:06.825Z,38.17
2023-02-08T05:04:33.748Z,37.03
2023-02-08T05:07:00.585Z,32.93
2023-02-08T05:09:27.442Z,35.57
2023-02-08T05:11:54.298Z,37.27
2023-02-08T05:14:21.128Z,34.93
2023-02-08T05:16:47.962Z,35.47
2023-02-08T05:19:14.787Z,34.30
2023-02-08T05:21:41.613Z,37.50
2023-02-08T05:24:12.687Z,37.33
2023-02-08T05:26:41.162Z,39.97
2023-02-08T05:29:08.042Z,40.63
2023-02-08T05:31:35.100Z,36.43
2023-02-08T05:34:02.064Z,38.83
2023-02-08T05:36:28.981Z,34.20
2023-02-08T05:38:55.803Z,37.77
2023-02-08T05:41:22.632Z,39.53
2023-02-08T05:43:49.449Z,33.33
2023-02-08T05:46:16.381Z,38.87
2023-02-08T05:48:43.595Z,43.10
2023-02-08T05:51:10.607Z,41.80
2023-02-08T05:53:37.843Z,45.27
2023-02-08T05:56:05.131Z,47.57
2023-02-08T05:58:32.043Z,54.77
2023-02-08T06:00:58.893Z,51.37
2023-02-08T06:03:25.859Z,50.33
2023-02-08T06:05:52.773Z,48.97
2023-02-08T06:08:19.620Z,52.07
2023-02-08T06:10:49.366Z,44.53
2023-02-08T06:13:16.246Z,50.13
2023-02-08T06:15:43.641Z,55.90
2023-02-08T06:18:11.091Z,59.07
2023-02-08T06:20:39.490Z,51.50
2023-02-08T06:23:06.680Z,50.90
2023-02-08T06:25:33.764Z,55.83
2023-02-08T06:28:00.692Z,54.83
2023-02-08T06:30:27.578Z,60.30
2023-02-08T06:32:54.430Z,89.67
2023-02-08T06:35:21.368Z,122.27
2023-02-08T06:37:48.245Z,75.17
2023-02-08T06:40:15.108Z,53.93
2023-02-08T06:42:43.109Z,54.03
2023-02-08T06:45:12.643Z,53.37
2023-02-08T06:47:40.375Z,55.97
2023-02-08T06:50:07.619Z,92.37
2023-02-08T06:52:34.456Z,203.53
2023-02-08T06:55:01.289Z,238.60
2023-02-08T06:57:28.169Z,218.30
2023-02-08T06:59:54.999Z,267.13
2023-02-08T07:02:21.899Z,304.50
2023-02-08T07:04:49.139Z,504.63
2023-02-08T07:07:17.887Z,479.33
2023-02-08T07:09:45.117Z,389.43
2023-02-08T07:12:12.071Z,330.73
2023-02-08T07:14:43.653Z,264.83
2023-02-08T07:17:11.921Z,208.63
2023-02-08T07:19:39.100Z,199.90
2023-02-08T07:22:08.459Z,167.23
2023-02-08T07:24:37.226Z,171.87
2023-02-08T07:27:04.898Z,203.03
2023-02-08T07:29:33.035Z,198.43
2023-02-08T07:32:02.056Z,196.87
2023-02-08T07:34:30.722Z,184.50
2023-02-08T07:36:58.346Z,158.70
2023-02-08T07:39:25.400Z,75.43
2023-02-08T07:41:52.428Z,61.83
2023-02-08T07:44:19.452Z,61.37
2023-02-08T07:46:46.292Z,73.60
2023-02-08T07:49:13.228Z,61.53
2023-02-08T07:51:40.045Z,64.20
2023-02-08T07:54:06.910Z,58.13
2023-02-08T07:56:33.848Z,54.23
2023-02-08T07:59:00.749Z,54.90
2023-02-08T08:01:27.650Z,69.73
2023-02-08T08:03:54.610Z,63.43
2023-02-08T08:06:22.630Z,74.30
2023-02-08T08:08:50.314Z,68.97
2023-02-08T08:11:18.626Z,59.30
2023-02-08T08:13:45.540Z,62.57
2023-02-08T08:16:13.513Z,81.07
2023-02-08T08:18:40.491Z,84.87
2023-02-08T08:21:07.965Z,90.77
2023-02-08T08:23:36.393Z,97.13
2023-02-08T08:26:11.833Z,74.97
2023-02-08T08:28:38.969Z,78.50
2023-02-08T08:31:11.058Z,109.40
2023-02-08T08:33:38.034Z,143.83
2023-02-08T08:36:05.001Z,116.77
2023-02-08T08:38:31.865Z,112.30
2023-02-08T08:40:58.701Z,178.93
2023-02-08T08:43:25.588Z,172.10
2023-02-08T08:45:53.179Z,118.77
2023-02-08T08:48:20.144Z,117.77
2023-02-08T08:50:47.503Z,153.17
2023-02-08T08:53:14.367Z,139.97
2023-02-08T08:55:41.186Z,127.93
2023-02-08T08:58:08.052Z,149.57
2023-02-08T09:00:34.931Z,135.30
2023-02-08T09:03:01.799Z,99.47
2023-02-08T09:05:28.711Z,94.97
2023-02-08T09:07:55.526Z,129.73
2023-02-08T09:10:22.448Z,108.37
2023-02-08T09:12:49.416Z,129.00
2023-02-08T09:15:16.306Z,227.93
2023-02-08T09:17:44.495Z,118.93
2023-02-08T09:20:11.588Z,92.37
2023-02-08T09:22:38.419Z,171.80
2023-02-08T09:25:06.217Z,285.70
2023-02-08T09:27:33.244Z,150.40
2023-02-08T09:30:00.122Z,102.30
2023-02-08T09:32:27.009Z,96.50
2023-02-08T09:34:53.854Z,101.33
2023-02-08T09:37:20.741Z,78.87
2023-02-08T09:39:47.654Z,136.13
2023-02-08T09:42:29.324Z,110.80
2023-02-08T09:45:14.482Z,83.10
2023-02-08T09:47:50.261Z,69.57
2023-02-08T09:50:17.051Z,127.50
2023-02-08T09:52:47.213Z,94.57
2023-02-08T09:55:25.469Z,116.73
2023-02-08T09:57:55.572Z,86.73
2023-02-08T10:00:34.172Z,107.80
2023-02-08T10:03:02.069Z,84.10
2023-02-08T10:05:31.330Z,79.40
2023-02-08T10:07:59.097Z,80.50
2023-02-08T10:11:18.326Z,78.87
2023-02-08T10:14:10.199Z,86.47
2023-02-08T10:16:43.979Z,73.47
2023-02-08T10:19:43.691Z,81.33
2023-02-08T10:22:27.283Z,103.80
2023-02-08T10:25:24.552Z,80.80
2023-02-08T10:28:06.780Z,79.27
2023-02-08T10:31:07.188Z,91.20
2023-02-08T10:33:54.939Z,96.80
2023-02-08T10:36:25.623Z,83.60
2023-02-08T10:38:55.131Z,88.33
2023-02-08T10:41:40.676Z,83.70
2023-02-08T10:44:28.176Z,149.03
2023-02-08T10:47:18.382Z,151.57
2023-02-08T10:49:58.257Z,136.37
2023-02-08T10:52:25.192Z,112.73
2023-02-08T10:54:52.702Z,178.17
2023-02-08T10:57:30.988Z,276.07
2023-02-08T11:00:06.969Z,151.80
2023-02-08T11:02:36.137Z,185.03
2023-02-08T11:05:08.428Z,188.10
2023-02-08T11:07:36.782Z,170.47
2023-02-08T11:10:17.064Z,149.50
2023-02-08T11:12:58.943Z,276.70
2023-02-08T11:15:31.802Z,181.43
2023-02-08T11:18:01.661Z,245.87
2023-02-08T11:20:39.697Z,206.80
2023-02-08T11:23:38.189Z,240.90
2023-02-08T11:26:35.330Z,198.63
2023-02-08T11:29:17.388Z,281.33
2023-02-08T11:32:00.340Z,126.50
2023-02-08T11:34:38.779Z,173.40
2023-02-08T11:37:28.777Z,150.53
2023-02-08T11:40:00.622Z,169.53
2023-02-08T11:42:42.042Z,123.60
2023-02-08T11:45:27.177Z,126.83
2023-02-08T11:47:54.559Z,132.20
2023-02-08T11:50:34.850Z,87.63
2023-02-08T11:53:05.406Z,87.00
2023-02-08T11:55:34.216Z,99.67
2023-02-08T11:58:13.213Z,95.33
2023-02-08T12:00:41.549Z,84.33
2023-02-08T12:03:18.557Z,72.27
2023-02-08T12:06:01.159Z,68.43
2023-02-08T12:08:53.068Z,74.50
2023-02-08T12:11:25.663Z,68.37
2023-02-08T12:13:58.274Z,74.53
2023-02-08T12:16:46.793Z,68.10
2023-02-08T12:19:57.035Z,64.63
2023-02-08T12:22:29.195Z,64.03
2023-02-08T12:25:29.694Z,75.97
2023-02-08T12:28:03.429Z,78.00
2023-02-08T12:30:35.053Z,74.93
2023-02-08T12:33:23.650Z,72.63
2023-02-08T12:36:04.989Z,66.10
2023-02-08T12:39:19.158Z,71.23
2023-02-08T12:42:34.772Z,60.33
2023-02-08T12:45:19.473Z,55.30
2023-02-08T12:48:03.971Z,56.93
2023-02-08T12:51:06.808Z,60.80
2023-02-08T12:53:49.040Z,56.30
2023-02-08T12:56:23.779Z,56.27
2023-02-08T12:59:01.931Z,59.43
2023-02-08T13:01:42.755Z,58.00
2023-02-08T13:04:23.590Z,62.93
2023-02-08T13:06:57.759Z,62.23
2023-02-08T13:09:35.562Z,59.90
2023-02-08T13:12:02.703Z,58.87
2023-02-08T13:14:37.994Z,53.13
2023-02-08T13:17:28.305Z,56.80
2023-02-08T13:20:07.191Z,54.40
2023-02-08T13:22:41.231Z,53.47
2023-02-08T13:25:16.691Z,56.13
2023-02-08T13:27:43.628Z,58.33
2023-02-08T13:30:19.460Z,65.63
2023-02-08T13:32:50.690Z,58.47
2023-02-08T13:35:27.234Z,58.10
2023-02-08T13:38:04.476Z,50.40
2023-02-08T13:40:36.874Z,58.13
2023-02-08T13:43:26.008Z,72.60
2023-02-08T13:46:00.702Z,62.07
2023-02-08T13:48:27.633Z,72.37
2023-02-08T13:50:57.237Z,68.73
2023-02-08T13:53:39.239Z,67.07
2023-02-08T13:56:10.224Z,87.20
2023-02-08T13:59:01.539Z,74.07
2023-02-08T14:01:31.718Z,77.67
2023-02-08T14:04:07.604Z,78.77
2023-02-08T14:06:50.972Z,78.53
2023-02-08T14:09:20.917Z,81.13
2023-02-08T14:11:49.742Z,75.03
2023-02-08T14:14:24.683Z,72.13
2023-02-08T14:17:16.283Z,73.80
2023-02-08T14:19:46.965Z,72.83
2023-02-08T14:22:17.189Z,79.10
2023-02-08T14:24:47.507Z,76.43
2023-02-08T14:27:23.175Z,71.83
2023-02-08T14:30:20.096Z,64.83
2023-02-08T14:32:53.356Z,70.37
2023-02-08T14:35:26.895Z,71.73
2023-02-08T14:38:24.485Z,73.07
2023-02-08T14:40:53.831Z,68.57
2023-02-08T14:43:20.692Z,71.47
2023-02-08T14:45:52.368Z,66.83
2023-02-08T14:48:34.374Z,70.27
2023-02-08T14:51:10.381Z,79.47
2023-02-08T14:53:56.916Z,66.93
2023-02-08T14:56:39.065Z,63.90
2023-02-08T14:59:15.054Z,72.83
2023-02-08T15:01:49.853Z,73.57
2023-02-08T15:04:20.878Z,71.80
2023-02-08T15:07:22.153Z,88.80
2023-02-08T15:09:49.225Z,95.13
2023-02-08T15:12:32.203Z,89.57
2023-02-08T15:15:00.965Z,94.63
2023-02-08T15:17:39.903Z,92.30
2023-02-08T15:20:16.682Z,89.87
2023-02-08T15:22:43.544Z,90.63
2023-02-08T15:25:13.116Z,96.87
2023-02-08T15:27:48.874Z,92.00
2023-02-08T15:30:29.750Z,83.50
2023-02-08T15:32:57.226Z,79.70
2023-02-08T15:35:26.059Z,80.30
2023-02-08T15:37:54.741Z,80.10
2023-02-08T15:40:30.206Z,80.27
2023-02-08T15:43:04.770Z,76.13
2023-02-08T15:45:31.759Z,69.53
2023-02-08T15:47:59.768Z,73.57
2023-02-08T15:50:28.217Z,78.90
2023-02-08T15:53:04.824Z,78.70
2023-02-08T15:55:39.719Z,78.27
2023-02-08T15:58:28.713Z,82.07
2023-02-08T16:00:58.037Z,93.57
2023-02-08T16:03:26.356Z,91.00
2023-02-08T16:05:57.570Z,101.85
2023-02-08T16:08:30.740Z,104.97
2023-02-08T16:11:21.305Z,91.33
2023-02-08T16:13:51.248Z,90.73
2023-02-08T16:16:36.291Z,102.77
2023-02-08T16:19:21.561Z,95.93
2023-02-08T16:21:48.626Z,305.07
2023-02-08T16:24:15.465Z,330.57
2023-02-08T16:26:46.863Z,263.17
2023-02-08T16:29:40.229Z,247.27
2023-02-08T16:32:18.951Z,378.83
2023-02-08T16:34:46.499Z,340.90
2023-02-08T16:37:29.634Z,298.27
2023-02-08T16:40:02.490Z,276.33
2023-02-08T16:42:35.952Z,213.37
2023-02-08T16:45:08.762Z,203.77
2023-02-08T16:47:50.758Z,214.83
2023-02-08T16:50:23.832Z,214.30
2023-02-08T16:53:02.936Z,223.47
2023-02-08T16:55:36.516Z,216.10
2023-02-08T16:58:03.467Z,232.50
2023-02-08T17:00:33.972Z,281.37
2023-02-08T17:03:01.431Z,352.37
2023-02-08T17:05:32.253Z,393.17
2023-02-08T17:08:00.098Z,374.80
2023-02-08T17:10:31.009Z,436.03
2023-02-08T17:13:18.347Z,462.87
2023-02-08T17:15:48.125Z,474.10
2023-02-08T17:18:15.288Z,455.23
2023-02-08T17:20:42.596Z,445.30
2023-02-08T17:23:10.286Z,374.83
2023-02-08T17:25:37.667Z,392.63
2023-02-08T17:28:07.678Z,422.37
2023-02-08T17:30:37.637Z,384.43
2023-02-08T17:33:06.694Z,345.27
2023-02-08T17:35:35.134Z,306.97
2023-02-08T17:38:02.190Z,306.43
2023-02-08T17:40:32.667Z,363.50
2023-02-08T17:43:00.731Z,429.83
2023-02-08T17:45:29.181Z,381.03
2023-02-08T17:47:59.352Z,356.17
2023-02-08T17:50:26.345Z,384.80
2023-02-08T17:52:53.807Z,318.07
2023-02-08T17:55:20.823Z,295.03
2023-02-08T17:57:48.349Z,309.93
2023-02-08T18:00:19.182Z,294.83
2023-02-08T18:02:48.568Z,289.50
2023-02-08T18:05:17.738Z,250.43
2023-02-08T18:07:44.813Z,253.60
2023-02-08T18:10:12.867Z,229.63
2023-02-08T18:12:40.536Z,219.27
2023-02-08T18:15:09.633Z,234.37
2023-02-08T18:17:36.655Z,251.77
2023-02-08T18:20:03.822Z,273.47
2023-02-08T18:22:30.802Z,257.17
2023-02-08T18:24:57.774Z,290.03
2023-02-08T18:27:25.956Z,275.20
2023-02-08T18:29:53.495Z,306.60
2023-02-08T18:32:22.094Z,214.30
2023-02-08T18:34:50.415Z,196.03
2023-02-08T18:37:17.539Z,162.70
2023-02-08T18:39:44.508Z,235.87
2023-02-08T18:42:11.995Z,227.63
2023-02-08T18:44:39.193Z,209.03
2023-02-08T18:47:07.461Z,193.63
2023-02-08T18:49:40.645Z,170.03
2023-02-08T18:52:10.372Z,170.03
2023-02-08T18:54:39.397Z,164.70
2023-02-08T18:57:09.615Z,170.27
2023-02-08T18:59:37.960Z,179.03
2023-02-08T19:02:07.283Z,163.33
2023-02-08T19:04:40.755Z,153.03
2023-02-08T19:07:07.880Z,186.33
2023-02-08T19:09:36.380Z,194.97
2023-02-08T19:12:03.466Z,268.87
2023-02-08T19:14:30.438Z,522.37
2023-02-08T19:16:57.647Z,541.73
2023-02-08T19:19:25.326Z,515.90
2023-02-08T19:21:52.982Z,424.80
2023-02-08T19:24:19.979Z,284.17
2023-02-08T19:26:47.222Z,219.13
2023-02-08T19:29:17.429Z,190.90
2023-02-08T19:31:45.912Z,181.23
2023-02-08T19:34:13.472Z,165.07
2023-02-08T19:36:46.752Z,156.77
2023-02-08T19:39:16.099Z,174.30
2023-02-08T19:41:43.404Z,196.93
2023-02-08T19:44:14.942Z,176.87
2023-02-08T19:46:45.038Z,175.60
2023-02-08T19:49:13.615Z,189.37
2023-02-08T19:51:41.158Z,205.80
2023-02-08T19:54:13.497Z,208.70
2023-02-08T19:56:40.947Z,181.57
2023-02-08T19:59:16.481Z,179.17
2023-02-08T20:01:43.962Z,170.33
2023-02-08T20:04:12.561Z,173.40
2023-02-08T20:06:40.426Z,212.87
2023-02-08T20:09:08.858Z,209.10
2023-02-08T20:11:45.048Z,371.70
2023-02-08T20:14:22.627Z,337.90
2023-02-08T20:16:49.664Z,285.73
2023-02-08T20:19:16.685Z,243.50
2023-02-08T20:21:45.311Z,210.77
2023-02-08T20:24:12.781Z,200.27
2023-02-08T20:26:41.791Z,226.17
2023-02-08T20:29:09.219Z,235.83
2023-02-08T20:31:37.946Z,209.23
2023-02-08T20:34:08.220Z,194.80
2023-02-08T20:36:45.108Z,178.47
2023-02-08T20:39:20.788Z,182.30
2023-02-08T20:41:48.171Z,184.70
2023-02-08T20:44:17.954Z,177.60
2023-02-08T20:46:45.373Z,177.10
2023-02-08T20:49:22.264Z,202.67
2023-02-08T20:51:52.650Z,187.73
2023-02-08T20:54:19.987Z,193.03
2023-02-08T20:56:47.224Z,221.43
2023-02-08T20:59:16.487Z,209.33
2023-02-08T21:01:44.811Z,198.27
2023-02-08T21:04:13.246Z,188.40
2023-02-08T21:06:44.502Z,187.67
2023-02-08T21:09:14.216Z,190.07
2023-02-08T21:11:41.331Z,220.90
2023-02-08T21:14:09.536Z,211.37
2023-02-08T21:16:36.687Z,206.33
2023-02-08T21:19:04.326Z,202.00
2023-02-08T21:21:31.503Z,277.90
2023-02-08T21:23:58.638Z,304.27
2023-02-08T21:26:26.641Z,281.07
2023-02-08T21:28:55.527Z,260.53
2023-02-08T21:31:24.118Z,380.03
2023-02-08T21:33:51.692Z,377.30
2023-02-08T21:36:22.687Z,380.80
2023-02-08T21:38:49.762Z,322.63
2023-02-08T21:41:20.518Z,396.90
2023-02-08T21:43:48.168Z,352.20
2023-02-08T21:46:16.059Z,254.47
2023-02-08T21:49:01.956Z,297.03
2023-02-08T21:51:47.567Z,318.17
2023-02-08T21:54:29.796Z,282.53
2023-02-08T21:56:59.840Z,334.43
2023-02-08T21:59:27.664Z,316.40
2023-02-08T22:01:54.669Z,336.97
2023-02-08T22:04:21.760Z,255.17
2023-02-08T22:06:49.188Z,245.83
2023-02-08T22:09:20.656Z,215.13
2023-02-08T22:11:50.659Z,212.73
2023-02-08T22:14:17.602Z,242.40
2023-02-08T22:16:44.512Z,289.37
2023-02-08T22:19:11.420Z,267.93
2023-02-08T22:21:38.246Z,227.60
2023-02-08T22:24:05.541Z,211.50
2023-02-08T22:26:32.384Z,222.07
2023-02-08T22:28:59.311Z,218.00
2023-02-08T22:31:26.406Z,205.43
2023-02-08T22:33:54.136Z,232.57
2023-02-08T22:36:21.577Z,288.13
2023-02-08T22:38:48.572Z,278.83
2023-02-08T22:41:17.267Z,287.30
2023-02-08T22:43:44.786Z,275.70
2023-02-08T22:46:11.764Z,248.10
2023-02-08T22:48:39.146Z,237.90
2023-02-08T22:51:08.476Z,250.27
2023-02-08T22:53:35.751Z,220.03
2023-02-08T22:56:03.090Z,244.30
2023-02-08T22:58:30.016Z,267.90
2023-02-08T23:00:57.290Z,292.57
2023-02-08T23:03:24.461Z,273.17
2023-02-08T23:05:52.696Z,253.67
2023-02-08T23:08:21.520Z,220.80
2023-02-08T23:10:48.647Z,254.37
2023-02-08T23:13:15.563Z,232.70
2023-02-08T23:15:45.028Z,213.77
2023-02-08T23:18:12.540Z,207.93
2023-02-08T23:20:41.025Z,207.77
2023-02-08T23:23:08.150Z,286.10
2023-02-08T23:25:37.991Z,215.10
2023-02-08T23:28:05.026Z,224.67
2023-02-08T23:30:31.979Z,229.33
2023-02-08T23:32:58.941Z,210.63
2023-02-08T23:35:26.172Z,208.50
2023-02-08T23:37:52.991Z,183.50
2023-02-08T23:40:19.959Z,205.03
2023-02-08T23:42:46.850Z,199.13
2023-02-08T23:45:13.806Z,202.87
2023-02-08T23:47:41.038Z,186.20
2023-02-08T23:50:09.000Z,194.90
2023-02-08T23:52:36.384Z,204.17
2023-02-08T23:55:04.190Z,197.77
2023-02-08T23:57:33.227Z,214.90
